createdAt,value
2023-01-18T00:00:46.962Z,12.52
2023-01-18T00:03:13.821Z,12.15
2023-01-18T00:05:43.609Z,13.52
2023-01-18T00:08:10.563Z,12.60
2023-01-18T00:10:37.404Z,14.75
2023-01-18T00:13:04.288Z,11.15
2023-01-18T00:15:31.235Z,10.27
2023-01-18T00:17:57.602Z,11.30
2023-01-18T00:20:25.495Z,14.80
2023-01-18T00:22:52.313Z,9.85
2023-01-18T00:25:19.822Z,13.77
2023-01-18T00:27:47.758Z,15.68
2023-01-18T00:30:14.679Z,13.38
2023-01-18T00:32:41.080Z,12.60
2023-01-18T00:35:08.164Z,15.07
2023-01-18T00:37:35.176Z,11.18
2023-01-18T00:40:01.628Z,11.73
2023-01-18T00:42:46.767Z,11.13
2023-01-18T00:45:13.159Z,11.27
2023-01-18T00:47:39.541Z,12.32
2023-01-18T00:50:06.222Z,12.48
2023-01-18T00:52:34.752Z,13.88
2023-01-18T00:55:01.747Z,15.15
2023-01-18T00:57:28.191Z,10.07
2023-01-18T00:59:54.635Z,11.05
2023-01-18T01:02:21.076Z,12.25
2023-01-18T01:05:06.298Z,12.65
2023-01-18T01:07:32.693Z,12.55
2023-01-18T01:09:59.248Z,14.18
2023-01-18T01:12:44.962Z,15.90
2023-01-18T01:18:14.715Z,12.07
2023-01-18T01:20:59.424Z,13.15
2023-01-18T01:23:44.354Z,13.38
2023-01-18T01:26:11.743Z,9.88
2023-01-18T01:28:40.239Z,10.85
2023-01-18T01:31:07.786Z,10.82
2023-01-18T01:33:34.696Z,10.77
2023-01-18T01:36:02.626Z,13.13
2023-01-18T01:38:29.374Z,10.82
2023-01-18T01:40:56.666Z,12.30
2023-01-18T01:43:37.159Z,11.50
2023-01-18T01:46:04.674Z,11.10
2023-01-18T01:48:31.337Z,12.63
2023-01-18T01:50:57.952Z,10.07
2023-01-18T01:53:24.284Z,11.65
2023-01-18T01:55:50.645Z,11.77
2023-01-18T01:58:24.343Z,11.77
2023-01-18T02:00:50.796Z,9.70
2023-01-18T02:03:20.747Z,10.82
2023-01-18T02:05:49.252Z,11.98
2023-01-18T02:08:22.249Z,13.43
2023-01-18T02:10:49.102Z,13.20
2023-01-18T02:13:16.095Z,9.93
2023-01-18T02:15:47.411Z,10.43
2023-01-18T02:18:19.429Z,10.23
2023-01-18T02:21:10.392Z,11.73
2023-01-18T02:23:59.659Z,11.40
2023-01-18T02:26:44.980Z,12.43
2023-01-18T02:29:18.061Z,10.63
2023-01-18T02:31:53.500Z,12.05
2023-01-18T02:34:30.848Z,10.07
2023-01-18T02:37:04.722Z,11.98
2023-01-18T02:39:49.298Z,9.25
2023-01-18T02:42:42.472Z,12.10
2023-01-18T02:46:00.247Z,9.80
2023-01-18T02:48:32.440Z,12.48
2023-01-18T02:50:58.787Z,7.90
2023-01-18T02:53:25.217Z,10.13
2023-01-18T02:56:00.903Z,11.93
2023-01-18T02:58:31.633Z,11.05
2023-01-18T03:01:09.183Z,12.70
2023-01-18T03:03:36.061Z,14.32
2023-01-18T03:06:03.439Z,14.45
2023-01-18T03:08:36.666Z,14.05
2023-01-18T03:11:06.003Z,8.95
2023-01-18T03:13:35.488Z,10.05
2023-01-18T03:16:05.965Z,12.88
2023-01-18T03:18:59.962Z,11.70
2023-01-18T03:21:37.676Z,12.05
2023-01-18T03:24:05.591Z,12.38
2023-01-18T03:26:35.181Z,11.75
2023-01-18T03:29:21.257Z,13.27
2023-01-18T03:32:15.324Z,14.65
2023-01-18T03:34:41.785Z,13.65
2023-01-18T03:37:13.858Z,12.93
2023-01-18T03:39:45.476Z,11.02
2023-01-18T03:42:16.796Z,15.10
2023-01-18T03:44:49.935Z,11.80
2023-01-18T03:47:16.417Z,16.08
2023-01-18T03:49:42.854Z,13.93
2023-01-18T03:52:09.268Z,15.07
2023-01-18T03:54:40.365Z,14.00
2023-01-18T03:57:25.475Z,16.13
2023-01-18T03:59:51.892Z,15.82
2023-01-18T04:02:18.504Z,15.93
2023-01-18T04:04:45.007Z,14.75
2023-01-18T04:07:11.385Z,11.27
2023-01-18T04:09:37.740Z,16.40
2023-01-18T04:12:04.221Z,16.00
2023-01-18T04:14:31.095Z,19.77
2023-01-18T04:16:57.494Z,25.17
2023-01-18T04:19:23.875Z,25.20
2023-01-18T04:21:50.400Z,16.13
2023-01-18T04:24:17.282Z,17.98
2023-01-18T04:26:43.586Z,18.83
2023-01-18T04:29:10.601Z,16.25
2023-01-18T04:31:37.226Z,16.60
2023-01-18T04:34:03.816Z,15.90
2023-01-18T04:36:30.196Z,14.68
2023-01-18T04:38:57.306Z,18.88
2023-01-18T04:41:23.977Z,15.55
2023-01-18T04:43:50.388Z,19.65
2023-01-18T04:46:16.827Z,17.73
2023-01-18T04:48:43.378Z,21.10
2023-01-18T04:51:15.356Z,49.15
2023-01-18T04:53:42.588Z,64.07
2023-01-18T04:56:09.344Z,23.80
2023-01-18T04:58:35.873Z,17.02
2023-01-18T05:01:03.034Z,20.25
2023-01-18T05:03:38.076Z,26.90
2023-01-18T05:06:09.559Z,25.55
2023-01-18T05:08:35.988Z,20.92
2023-01-18T05:11:03.684Z,18.55
2023-01-18T05:13:30.177Z,16.75
2023-01-18T05:15:56.916Z,21.10
2023-01-18T05:18:23.414Z,21.23
2023-01-18T05:20:49.919Z,15.57
2023-01-18T05:23:16.494Z,17.55
2023-01-18T05:25:43.364Z,17.00
2023-01-18T05:28:10.198Z,14.65
2023-01-18T05:30:38.769Z,16.35
2023-01-18T05:33:05.121Z,16.65
2023-01-18T05:35:32.180Z,18.67
2023-01-18T05:37:58.627Z,15.13
2023-01-18T05:40:28.095Z,15.73
2023-01-18T05:42:57.287Z,19.38
2023-01-18T05:45:23.910Z,17.77
2023-01-18T05:47:50.436Z,18.98
2023-01-18T05:50:16.890Z,15.02
2023-01-18T05:52:43.466Z,18.00
2023-01-18T05:55:09.820Z,19.20
2023-01-18T05:57:36.265Z,17.83
2023-01-18T06:00:06.033Z,15.38
2023-01-18T06:02:32.432Z,21.50
2023-01-18T06:04:58.905Z,18.08
2023-01-18T06:07:25.271Z,24.45
2023-01-18T06:09:51.678Z,18.75
2023-01-18T06:12:18.058Z,18.30
2023-01-18T06:14:44.410Z,20.65
2023-01-18T06:17:10.851Z,20.73
2023-01-18T06:19:37.311Z,19.65
2023-01-18T06:22:03.782Z,24.00
2023-01-18T06:24:30.194Z,20.67
2023-01-18T06:26:57.881Z,20.60
2023-01-18T06:29:24.278Z,23.60
2023-01-18T06:31:50.732Z,23.48
2023-01-18T06:34:18.005Z,23.13
2023-01-18T06:36:45.188Z,24.30
2023-01-18T06:39:11.922Z,24.85
2023-01-18T06:41:39.152Z,21.67
2023-01-18T06:44:05.938Z,23.25
2023-01-18T06:46:33.499Z,25.20
2023-01-18T06:48:59.861Z,24.73
2023-01-18T06:51:26.401Z,23.15
2023-01-18T06:53:52.750Z,23.63
2023-01-18T06:56:19.198Z,27.95
2023-01-18T06:58:45.637Z,23.42
2023-01-18T07:01:12.249Z,21.27
2023-01-18T07:03:39.022Z,24.13
2023-01-18T07:06:06.440Z,25.27
2023-01-18T07:08:32.895Z,23.83
2023-01-18T07:11:03.185Z,25.67
2023-01-18T07:13:29.613Z,22.40
2023-01-18T07:16:00.822Z,25.20
2023-01-18T07:18:28.478Z,22.58
2023-01-18T07:21:02.263Z,23.92
2023-01-18T07:23:29.642Z,22.60
2023-01-18T07:25:59.893Z,21.90
2023-01-18T07:28:26.564Z,25.67
2023-01-18T07:30:52.952Z,21.42
2023-01-18T07:33:19.356Z,21.08
2023-01-18T07:35:45.725Z,22.77
2023-01-18T07:38:12.108Z,21.77
2023-01-18T07:40:38.482Z,24.40
2023-01-18T07:43:04.892Z,21.35
2023-01-18T07:45:31.273Z,22.58
2023-01-18T07:47:57.585Z,24.35
2023-01-18T07:50:24.072Z,25.55
2023-01-18T07:52:50.482Z,21.58
2023-01-18T07:55:16.954Z,21.20
2023-01-18T07:57:43.998Z,22.67
2023-01-18T08:00:11.277Z,24.85
2023-01-18T08:02:37.720Z,23.13
2023-01-18T08:05:04.882Z,20.60
2023-01-18T08:07:34.447Z,25.10
2023-01-18T08:10:00.825Z,23.05
2023-01-18T08:12:27.351Z,19.77
2023-01-18T08:14:53.710Z,20.50
2023-01-18T08:17:20.200Z,20.17
2023-01-18T08:19:47.748Z,22.73
2023-01-18T08:22:14.277Z,21.75
2023-01-18T08:24:41.007Z,21.23
2023-01-18T08:27:07.732Z,21.95
2023-01-18T08:29:35.641Z,19.90
2023-01-18T08:32:04.605Z,19.83
2023-01-18T08:34:33.475Z,22.10
2023-01-18T08:37:01.355Z,19.20
2023-01-18T08:39:33.485Z,21.83
2023-01-18T08:42:00.084Z,24.05
2023-01-18T08:44:29.517Z,26.40
2023-01-18T08:46:58.068Z,19.00
2023-01-18T08:49:24.522Z,18.30
2023-01-18T08:51:51.906Z,16.13
2023-01-18T08:54:18.290Z,19.75
2023-01-18T08:56:44.655Z,20.88
2023-01-18T08:59:11.132Z,18.00
2023-01-18T09:01:37.592Z,18.33
2023-01-18T09:04:04.018Z,20.23
2023-01-18T09:06:32.189Z,18.90
2023-01-18T09:08:59.481Z,23.52
2023-01-18T09:11:26.303Z,24.92
2023-01-18T09:14:00.723Z,25.27
2023-01-18T09:16:27.908Z,24.23
2023-01-18T09:18:56.239Z,23.38
2023-01-18T09:21:23.127Z,23.00
2023-01-18T09:23:50.775Z,24.27
2023-01-18T09:26:18.286Z,22.10
2023-01-18T09:28:45.018Z,21.13
2023-01-18T09:31:12.469Z,20.25
2023-01-18T09:33:39.684Z,20.23
2023-01-18T09:36:07.785Z,27.95
2023-01-18T09:38:36.032Z,21.25
2023-01-18T09:41:03.122Z,18.80
2023-01-18T09:43:32.611Z,23.52
2023-01-18T09:45:59.810Z,23.17
2023-01-18T09:48:26.207Z,18.17
2023-01-18T09:50:53.976Z,18.75
2023-01-18T09:53:38.903Z,17.98
2023-01-18T09:56:16.539Z,23.17
2023-01-18T09:58:50.361Z,22.88
2023-01-18T10:01:22.346Z,24.45
2023-01-18T10:03:49.170Z,20.75
2023-01-18T10:06:27.174Z,20.08
2023-01-18T10:09:04.224Z,20.95
2023-01-18T10:11:36.544Z,17.08
2023-01-18T10:14:19.456Z,20.30
2023-01-18T10:16:51.313Z,17.80
2023-01-18T10:19:21.397Z,17.02
2023-01-18T10:21:50.735Z,17.15
2023-01-18T10:24:26.428Z,17.73
2023-01-18T10:26:53.544Z,20.05
2023-01-18T10:29:35.635Z,16.55
2023-01-18T10:32:04.540Z,21.95
2023-01-18T10:34:35.222Z,18.38
2023-01-18T10:37:12.446Z,17.15
2023-01-18T10:39:41.786Z,17.02
2023-01-18T10:42:19.656Z,17.23
2023-01-18T10:44:46.111Z,24.48
2023-01-18T10:47:17.791Z,28.95
2023-01-18T10:49:45.344Z,41.85
2023-01-18T10:52:18.897Z,42.20
2023-01-18T10:55:12.102Z,31.42
2023-01-18T10:57:43.453Z,43.50
2023-01-18T11:00:23.332Z,39.97
2023-01-18T11:02:51.804Z,25.90
2023-01-18T11:05:32.769Z,15.05
2023-01-18T11:08:11.541Z,14.85
2023-01-18T11:10:38.270Z,28.25
2023-01-18T11:13:22.647Z,16.00
2023-01-18T11:15:51.834Z,14.30
2023-01-18T11:18:18.641Z,14.73
2023-01-18T11:20:48.754Z,15.55
2023-01-18T11:23:21.402Z,13.13
2023-01-18T11:26:01.917Z,14.38
2023-01-18T11:28:31.410Z,14.98
2023-01-18T11:31:19.035Z,14.13
2023-01-18T11:33:50.103Z,26.00
2023-01-18T11:36:16.979Z,13.85
2023-01-18T11:38:43.395Z,21.13
2023-01-18T11:41:17.023Z,17.08
2023-01-18T11:44:01.886Z,16.38
2023-01-18T11:46:39.049Z,19.70
2023-01-18T11:49:37.021Z,14.20
2023-01-18T11:52:07.796Z,12.15
2023-01-18T11:54:41.111Z,14.15
2023-01-18T11:57:12.397Z,15.75
2023-01-18T11:59:43.577Z,17.73
2023-01-18T12:02:29.973Z,17.20
2023-01-18T12:05:15.321Z,21.17
2023-01-18T12:08:03.229Z,21.77
2023-01-18T12:10:45.075Z,20.08
2023-01-18T12:13:26.690Z,24.75
2023-01-18T12:16:02.306Z,20.52
2023-01-18T12:18:34.753Z,20.23
2023-01-18T12:21:04.166Z,23.83
2023-01-18T12:23:31.266Z,18.23
2023-01-18T12:26:12.213Z,19.02
2023-01-18T12:28:57.928Z,20.13
2023-01-18T12:31:32.248Z,38.85
2023-01-18T12:33:58.643Z,23.10
2023-01-18T12:36:46.099Z,18.00
2023-01-18T12:39:20.597Z,18.08
2023-01-18T12:41:59.809Z,18.90
2023-01-18T12:44:38.978Z,16.52
2023-01-18T12:47:05.406Z,19.08
2023-01-18T12:49:34.827Z,18.63
2023-01-18T12:52:17.809Z,20.60
2023-01-18T12:54:50.335Z,18.63
2023-01-18T12:57:17.282Z,18.80
2023-01-18T12:59:54.068Z,17.60
2023-01-18T13:02:34.443Z,18.35
2023-01-18T13:05:23.156Z,18.35
2023-01-18T13:07:57.378Z,20.60
2023-01-18T13:10:27.951Z,18.95
2023-01-18T13:12:55.175Z,21.90
2023-01-18T13:15:38.491Z,20.63
2023-01-18T13:18:10.461Z,21.10
2023-01-18T13:20:37.227Z,18.10
2023-01-18T13:23:36.296Z,17.58
2023-01-18T13:26:25.320Z,30.20
2023-01-18T13:29:10.191Z,21.88
2023-01-18T13:31:37.427Z,18.23
2023-01-18T13:34:04.000Z,15.57
2023-01-18T13:36:44.566Z,18.67
2023-01-18T13:39:14.663Z,18.50
2023-01-18T13:42:01.029Z,19.90
2023-01-18T13:44:32.408Z,21.13
2023-01-18T13:47:02.061Z,17.48
2023-01-18T13:49:38.687Z,17.95
2023-01-18T13:52:31.562Z,17.15
2023-01-18T13:55:01.176Z,15.27
2023-01-18T13:57:28.812Z,15.85
2023-01-18T13:59:55.259Z,18.73
2023-01-18T14:02:26.630Z,19.95
2023-01-18T14:05:19.833Z,15.80
2023-01-18T14:07:48.207Z,15.63
2023-01-18T14:10:33.305Z,13.93
2023-01-18T14:13:02.091Z,14.48
2023-01-18T14:15:47.189Z,17.67
2023-01-18T14:18:24.141Z,10.97
2023-01-18T14:21:06.197Z,11.55
2023-01-18T14:23:48.186Z,13.00
2023-01-18T14:26:19.946Z,12.88
2023-01-18T14:28:48.205Z,12.23
2023-01-18T14:31:18.530Z,13.32
2023-01-18T14:33:45.089Z,14.00
2023-01-18T14:36:22.673Z,17.13
2023-01-18T14:39:06.730Z,14.95
2023-01-18T14:41:33.202Z,13.50
2023-01-18T14:43:59.580Z,12.75
2023-01-18T14:46:26.929Z,13.93
2023-01-18T14:48:54.607Z,12.32
2023-01-18T14:51:22.600Z,11.35
2023-01-18T14:53:54.977Z,15.57
2023-01-18T14:56:28.526Z,12.70
2023-01-18T14:58:59.520Z,13.25
2023-01-18T15:01:39.328Z,12.90
2023-01-18T15:04:17.038Z,16.67
2023-01-18T15:06:45.845Z,12.15
2023-01-18T15:09:14.803Z,11.05
2023-01-18T15:11:42.214Z,14.85
2023-01-18T15:14:29.196Z,15.20
2023-01-18T15:16:57.088Z,12.75
2023-01-18T15:19:24.818Z,12.57
2023-01-18T15:21:51.328Z,11.63
2023-01-18T15:24:19.617Z,13.43
2023-01-18T15:26:47.601Z,12.02
2023-01-18T15:29:15.055Z,11.27
2023-01-18T15:31:49.976Z,11.75
2023-01-18T15:34:17.416Z,14.93
2023-01-18T15:36:44.647Z,17.75
2023-01-18T15:39:12.041Z,11.77
2023-01-18T15:41:39.517Z,17.40
2023-01-18T15:44:06.059Z,15.00
2023-01-18T15:46:37.402Z,13.25
2023-01-18T15:49:05.175Z,13.90
2023-01-18T15:51:50.217Z,18.55
2023-01-18T15:54:17.916Z,15.40
2023-01-18T15:56:45.796Z,17.75
2023-01-18T15:59:13.273Z,18.42
2023-01-18T16:01:41.498Z,20.15
2023-01-18T16:04:21.137Z,21.27
2023-01-18T16:06:47.619Z,22.08
2023-01-18T16:09:16.007Z,30.23
2023-01-18T16:11:52.136Z,27.95
2023-01-18T16:14:46.013Z,26.88
2023-01-18T16:17:18.373Z,26.92
2023-01-18T16:19:44.704Z,25.85
2023-01-18T16:22:29.902Z,29.42
2023-01-18T16:24:56.362Z,27.58
2023-01-18T16:27:24.456Z,28.20
2023-01-18T16:29:52.454Z,32.25
2023-01-18T16:32:21.932Z,32.17
2023-01-18T16:34:48.707Z,30.35
2023-01-18T16:37:15.377Z,34.15
2023-01-18T16:39:41.829Z,31.75
2023-01-18T16:42:11.717Z,31.88
2023-01-18T16:44:39.115Z,34.53
2023-01-18T16:47:09.623Z,34.63
2023-01-18T16:49:36.608Z,37.38
2023-01-18T16:52:08.391Z,42.20
2023-01-18T16:54:37.315Z,33.90
2023-01-18T16:57:04.284Z,44.40
2023-01-18T16:59:33.104Z,41.08
2023-01-18T17:02:12.454Z,49.28
2023-01-18T17:04:42.917Z,46.70
2023-01-18T17:07:14.062Z,38.22
2023-01-18T17:09:48.848Z,46.65
2023-01-18T17:13:03.081Z,41.20
2023-01-18T17:15:02.989Z,57.67
2023-01-18T17:17:31.222Z,43.72
2023-01-18T17:19:57.618Z,38.17
2023-01-18T17:22:24.010Z,29.63
2023-01-18T17:24:53.430Z,25.67
2023-01-18T17:27:20.051Z,29.48
2023-01-18T17:29:47.140Z,29.00
2023-01-18T17:32:15.561Z,29.35
2023-01-18T17:34:41.982Z,28.75
2023-01-18T17:37:08.906Z,29.88
2023-01-18T17:39:49.718Z,35.53
2023-01-18T17:42:29.720Z,31.48
2023-01-18T17:45:03.226Z,24.77
2023-01-18T17:47:30.353Z,20.80
2023-01-18T17:49:56.751Z,24.67
2023-01-18T17:52:23.109Z,27.52
2023-01-18T17:54:49.506Z,20.65
2023-01-18T17:57:15.957Z,22.65
2023-01-18T17:59:42.346Z,25.80
2023-01-18T18:02:09.524Z,29.63
2023-01-18T18:04:35.977Z,24.08
2023-01-18T18:07:02.529Z,30.27
2023-01-18T18:09:29.033Z,23.13
2023-01-18T18:11:55.474Z,24.40
2023-01-18T18:14:22.138Z,22.05
2023-01-18T18:16:48.522Z,24.13
2023-01-18T18:19:15.019Z,25.05
2023-01-18T18:21:43.343Z,26.48
2023-01-18T18:24:15.980Z,23.35
2023-01-18T18:26:42.480Z,24.13
2023-01-18T18:29:09.387Z,24.13
2023-01-18T18:34:18.774Z,23.83
2023-01-18T18:36:45.229Z,22.55
2023-01-18T18:39:11.660Z,26.08
2023-01-18T18:41:38.000Z,20.60
2023-01-18T18:44:04.449Z,25.75
2023-01-18T18:46:31.038Z,30.50
2023-01-18T18:48:57.521Z,34.63
2023-01-18T18:51:24.285Z,34.40
2023-01-18T18:53:51.072Z,46.47
2023-01-18T18:56:17.601Z,39.83
2023-01-18T18:58:43.968Z,35.83
2023-01-18T19:01:20.020Z,34.78
2023-01-18T19:03:46.860Z,35.70
2023-01-18T19:06:13.189Z,34.42
2023-01-18T19:08:39.565Z,38.70
2023-01-18T19:11:06.612Z,39.90
2023-01-18T19:13:33.000Z,38.92
2023-01-18T19:15:59.514Z,36.08
2023-01-18T19:18:25.994Z,40.08
2023-01-18T19:20:52.336Z,35.47
2023-01-18T19:23:18.925Z,34.00
2023-01-18T19:25:46.876Z,29.35
2023-01-18T19:28:13.269Z,31.85
2023-01-18T19:30:41.519Z,33.83
2023-01-18T19:33:08.726Z,32.47
2023-01-18T19:35:40.691Z,26.85
2023-01-18T19:38:07.880Z,34.60
2023-01-18T19:40:34.379Z,34.95
2023-01-18T19:43:01.255Z,31.15
2023-01-18T19:45:29.033Z,32.40
2023-01-18T19:47:56.299Z,30.38
2023-01-18T19:50:23.192Z,29.00
2023-01-18T19:52:50.284Z,29.73
2023-01-18T19:55:16.687Z,37.30
2023-01-18T19:57:43.081Z,33.72
2023-01-18T20:00:10.221Z,29.10
2023-01-18T20:02:40.589Z,32.33
2023-01-18T20:05:07.239Z,34.13
2023-01-18T20:07:33.650Z,36.90
2023-01-18T20:10:00.114Z,27.67
2023-01-18T20:12:29.307Z,33.95
2023-01-18T20:14:56.024Z,32.20
2023-01-18T20:17:22.598Z,29.60
2023-01-18T20:19:50.859Z,35.95
2023-01-18T20:22:17.355Z,31.50
2023-01-18T20:24:44.286Z,30.55
2023-01-18T20:27:16.258Z,33.70
2023-01-18T20:29:43.643Z,31.38
2023-01-18T20:32:16.148Z,26.05
2023-01-18T20:34:44.729Z,29.25
2023-01-18T20:37:11.964Z,24.63
2023-01-18T20:39:38.318Z,33.53
2023-01-18T20:42:04.961Z,33.40
2023-01-18T20:44:31.332Z,32.70
2023-01-18T20:46:57.690Z,29.65
2023-01-18T20:49:33.194Z,29.55
2023-01-18T20:52:04.926Z,37.00
2023-01-18T20:54:31.328Z,29.88
2023-01-18T20:56:58.811Z,28.58
2023-01-18T20:59:25.495Z,25.02
2023-01-18T21:01:52.991Z,33.88
2023-01-18T21:04:20.672Z,25.08
2023-01-18T21:06:47.916Z,24.70
2023-01-18T21:09:14.292Z,24.58
2023-01-18T21:11:40.674Z,23.33
2023-01-18T21:14:11.939Z,20.63
2023-01-18T21:16:38.601Z,23.80
2023-01-18T21:19:15.559Z,25.02
2023-01-18T21:21:42.102Z,19.17
2023-01-18T21:24:08.512Z,30.27
2023-01-18T21:26:36.055Z,25.05
2023-01-18T21:29:02.490Z,26.77
2023-01-18T21:31:28.954Z,31.27
2023-01-18T21:33:55.411Z,29.05
2023-01-18T21:36:22.975Z,32.25
2023-01-18T21:38:50.094Z,28.48
2023-01-18T21:41:35.336Z,26.83
2023-01-18T21:44:20.286Z,20.55
2023-01-18T21:46:47.298Z,29.88
2023-01-18T21:49:52.091Z,25.88
2023-01-18T21:52:38.956Z,21.90
2023-01-18T21:55:05.550Z,30.35
2023-01-18T21:57:31.941Z,25.33
2023-01-18T21:59:58.452Z,28.40
2023-01-18T22:02:25.049Z,29.38
2023-01-18T22:05:00.580Z,30.20
2023-01-18T22:07:27.986Z,27.77
2023-01-18T22:10:03.974Z,27.95
2023-01-18T22:12:32.798Z,24.27
2023-01-18T22:15:01.401Z,30.90
2023-01-18T22:17:27.851Z,25.63
2023-01-18T22:19:54.392Z,26.63
2023-01-18T22:22:20.807Z,27.73
2023-01-18T22:24:47.163Z,22.58
2023-01-18T22:27:13.622Z,25.88
2023-01-18T22:29:39.955Z,40.28
2023-01-18T22:32:06.368Z,23.80
2023-01-18T22:34:32.875Z,30.88
2023-01-18T22:36:59.218Z,21.15
2023-01-18T22:39:25.592Z,30.67
2023-01-18T22:41:52.088Z,23.15
2023-01-18T22:44:18.409Z,27.42
2023-01-18T22:46:44.802Z,30.90
2023-01-18T22:49:11.248Z,20.27
2023-01-18T22:51:37.696Z,19.25
2023-01-18T22:54:04.481Z,22.40
2023-01-18T22:56:30.878Z,20.38
2023-01-18T22:58:57.505Z,18.85
2023-01-18T23:01:25.106Z,16.35
2023-01-18T23:03:52.095Z,17.35
2023-01-18T23:06:18.961Z,18.83
2023-01-18T23:08:46.022Z,23.75
2023-01-18T23:11:12.347Z,20.15
2023-01-18T23:13:40.059Z,25.33
2023-01-18T23:16:25.861Z,25.42
2023-01-18T23:18:52.296Z,24.85
2023-01-18T23:21:18.730Z,23.30
2023-01-18T23:23:45.115Z,21.85
2023-01-18T23:26:11.510Z,20.00
2023-01-18T23:28:44.073Z,16.23
2023-01-18T23:31:11.760Z,19.90
2023-01-18T23:33:38.585Z,18.88
2023-01-18T23:36:05.619Z,17.80
2023-01-18T23:38:32.023Z,16.83
2023-01-18T23:41:17.072Z,14.45
2023-01-18T23:44:02.118Z,11.70
2023-01-18T23:46:47.028Z,16.30
2023-01-18T23:49:32.178Z,18.30
2023-01-18T23:52:17.053Z,15.68
2023-01-18T23:54:43.480Z,18.55
2023-01-18T23:57:09.830Z,15.60
2023-01-18T23:59:37.793Z,17.13
